Time;durP1;ratioP1;P1;durP2;ratioP2;P2;SDS_P1;SDS_P2;PMS_P1;PMS_P2;Temp;Humidity;BMP_temperature;BMP_pressure;BME280_temperature;BME280_humidity;BME280_pressure;Samples;Min_cycle;Max_cycle;Signal;HPM_P1;HPM_P2
2022/06/18 00:02:18;;;;;;;14.45;9.95;;;20.40;99.90;;;;;;5094860;28;20578;-74
2022/06/18 00:04:45;;;;;;;15.82;11.48;;;20.40;99.90;;;;;;5090708;28;20036;-74
2022/06/18 00:07:14;;;;;;;12.38;10.82;;;20.30;99.90;;;;;;5077225;28;20458;-74
2022/06/18 00:09:42;;;;;;;12.00;10.70;;;20.30;99.90;;;;;;5078872;28;20386;-73
2022/06/18 00:15:11;;;;;;;13.20;11.68;;;20.10;99.90;;;;;;5078547;28;20048;-73
2022/06/18 00:17:36;;;;;;;16.77;12.75;;;20.00;99.90;;;;;;5078454;28;20037;-73
2022/06/18 00:20:02;;;;;;;15.57;12.05;;;19.90;99.90;;;;;;5078435;28;20416;-74
2022/06/18 00:22:29;;;;;;;14.45;11.95;;;19.80;99.90;;;;;;5088523;28;20043;-73
2022/06/18 00:24:54;;;;;;;14.13;12.10;;;19.80;99.90;;;;;;5098617;28;20050;-74
2022/06/18 00:27:20;;;;;;;14.63;12.02;;;19.80;99.90;;;;;;5098778;28;20048;-73
2022/06/18 00:29:48;;;;;;;14.88;11.85;;;19.60;99.90;;;;;;5098250;28;20058;-72
2022/06/18 00:32:14;;;;;;;14.20;11.77;;;19.60;99.90;;;;;;5098475;28;20404;-73
2022/06/18 00:34:40;;;;;;;14.52;12.60;;;19.50;99.90;;;;;;5098501;28;20048;-73
2022/06/18 00:37:06;;;;;;;14.20;12.27;;;19.50;99.90;;;;;;5098406;28;20446;-73
2022/06/18 00:39:32;;;;;;;13.88;12.15;;;19.40;99.90;;;;;;5097414;28;20138;-74
2022/06/18 00:42:07;;;;;;;16.73;13.18;;;19.40;99.90;;;;;;5098052;28;20079;-73
2022/06/18 00:44:38;;;;;;;15.02;12.98;;;19.30;99.90;;;;;;5080527;28;20349;-74
2022/06/18 00:47:19;;;;;;;16.92;13.07;;;19.20;99.90;;;;;;5080484;28;20404;-72
2022/06/18 00:50:06;;;;;;;20.42;13.82;;;19.20;99.90;;;;;;5098133;28;20063;-74
2022/06/18 00:52:41;;;;;;;16.58;13.27;;;19.20;99.90;;;;;;5098412;28;20040;-74
2022/06/18 00:55:13;;;;;;;16.52;13.70;;;19.10;99.90;;;;;;5080258;28;20048;-74
2022/06/18 00:57:57;;;;;;;16.33;13.25;;;19.00;99.90;;;;;;5078319;28;20048;-74
2022/06/18 01:00:32;;;;;;;17.45;13.18;;;19.00;99.90;;;;;;5078045;28;20113;-74
2022/06/18 01:02:58;;;;;;;15.02;13.52;;;18.90;99.90;;;;;;5077648;28;20062;-74
2022/06/18 01:05:38;;;;;;;20.02;14.32;;;18.80;99.90;;;;;;5077581;28;20520;-73
2022/06/18 01:08:16;;;;;;;17.10;14.50;;;18.80;99.90;;;;;;5084251;28;20056;-74
2022/06/18 01:10:50;;;;;;;24.75;15.90;;;18.70;99.90;;;;;;5087314;28;20183;-73
2022/06/18 01:13:20;;;;;;;21.85;15.57;;;18.70;99.90;;;;;;5077490;28;20381;-73
2022/06/18 01:15:47;;;;;;;21.30;14.57;;;18.60;99.90;;;;;;5077527;28;20458;-74
2022/06/18 01:18:13;;;;;;;25.13;16.65;;;18.60;99.90;;;;;;5077344;28;20116;-73
2022/06/18 01:20:50;;;;;;;19.30;16.58;;;18.60;99.90;;;;;;5077651;28;20037;-73
2022/06/18 01:23:23;;;;;;;25.95;16.95;;;18.60;99.90;;;;;;5077761;28;20098;-74
2022/06/18 01:25:51;;;;;;;25.40;16.38;;;18.50;99.90;;;;;;5077320;28;20143;-73
2022/06/18 01:28:17;;;;;;;21.50;16.98;;;18.40;99.90;;;;;;5077077;28;20429;-73
2022/06/18 01:30:44;;;;;;;24.30;17.17;;;18.30;99.90;;;;;;5077151;28;20127;-74
2022/06/18 01:33:11;;;;;;;24.77;16.90;;;18.30;99.90;;;;;;5077283;28;20119;-73
2022/06/18 01:35:41;;;;;;;24.83;17.30;;;18.20;99.90;;;;;;5076710;28;20049;-73
2022/06/18 01:38:08;;;;;;;25.23;17.75;;;18.20;99.90;;;;;;5077055;28;20044;-73
2022/06/18 01:40:51;;;;;;;25.92;16.98;;;18.10;99.90;;;;;;5078178;28;20041;-73
2022/06/18 01:43:19;;;;;;;24.35;17.40;;;18.00;99.90;;;;;;5090449;28;20047;-73
2022/06/18 01:45:58;;;;;;;26.25;16.75;;;17.90;99.90;;;;;;5097202;28;20041;-73
2022/06/18 01:48:34;;;;;;;22.83;17.13;;;17.90;99.90;;;;;;5097032;28;20057;-73
2022/06/18 01:51:12;;;;;;;27.88;18.35;;;17.80;99.90;;;;;;5097147;28;20071;-73
2022/06/18 01:53:42;;;;;;;29.40;18.10;;;17.80;99.90;;;;;;5096752;28;20043;-74
2022/06/18 01:56:16;;;;;;;27.10;18.15;;;17.80;99.90;;;;;;5097053;28;20070;-74
2022/06/18 01:58:49;;;;;;;33.47;18.40;;;17.80;99.90;;;;;;5095924;28;20051;-72
2022/06/18 02:01:20;;;;;;;31.15;18.48;;;17.80;99.90;;;;;;5095445;28;20185;-74
2022/06/18 02:03:45;;;;;;;30.50;18.02;;;17.70;99.90;;;;;;5076233;28;20360;-73
2022/06/18 02:06:12;;;;;;;35.00;19.45;;;17.70;99.90;;;;;;5076641;28;20052;-73
2022/06/18 02:08:37;;;;;;;32.55;18.85;;;17.60;99.90;;;;;;5076432;28;20056;-73
2022/06/18 02:11:06;;;;;;;27.35;19.00;;;17.60;99.90;;;;;;5076449;28;20055;-73
2022/06/18 02:13:42;;;;;;;26.38;17.20;;;17.50;99.90;;;;;;5076282;28;20048;-74
2022/06/18 02:16:13;;;;;;;35.33;18.40;;;17.50;99.90;;;;;;5076811;28;20048;-73
2022/06/18 02:18:40;;;;;;;32.95;19.08;;;17.50;99.90;;;;;;5076306;28;20366;-74
2022/06/18 02:21:09;;;;;;;28.13;20.00;;;17.40;99.90;;;;;;5076130;28;20044;-73
2022/06/18 02:23:35;;;;;;;28.67;20.13;;;17.30;99.90;;;;;;5076373;28;20059;-73
2022/06/18 02:26:02;;;;;;;30.67;19.55;;;17.20;99.90;;;;;;5076173;28;20037;-73
2022/06/18 02:28:32;;;;;;;31.90;20.38;;;17.20;99.90;;;;;;5075406;28;20060;-73
2022/06/18 02:31:00;;;;;;;33.45;21.05;;;17.10;99.90;;;;;;5075614;28;20110;-72
2022/06/18 02:33:39;;;;;;;31.85;21.95;;;17.10;99.90;;;;;;5076028;28;20056;-73
2022/06/18 02:36:16;;;;;;;35.95;22.33;;;17.10;99.90;;;;;;5075974;28;20114;-74
2022/06/18 02:38:43;;;;;;;26.52;21.77;;;17.10;99.90;;;;;;5075962;28;20059;-74
2022/06/18 02:41:10;;;;;;;29.80;22.33;;;16.90;99.90;;;;;;5075927;28;20114;-73
2022/06/18 02:43:36;;;;;;;31.48;23.90;;;17.00;99.90;;;;;;5075927;28;20054;-73
2022/06/18 02:46:02;;;;;;;31.77;22.50;;;16.90;99.90;;;;;;5075895;28;20084;-73
2022/06/18 02:48:31;;;;;;;37.00;23.08;;;16.90;99.90;;;;;;5075631;28;20076;-74
2022/06/18 02:50:59;;;;;;;39.00;23.35;;;16.90;99.90;;;;;;5075976;28;20047;-74
2022/06/18 02:53:26;;;;;;;34.08;24.13;;;16.80;99.90;;;;;;5075767;28;20040;-73
2022/06/18 02:55:58;;;;;;;31.70;25.58;;;16.80;99.90;;;;;;5075623;28;20044;-74
2022/06/18 02:58:36;;;;;;;34.08;22.50;;;16.80;99.90;;;;;;5075723;28;20055;-74
2022/06/18 03:01:06;;;;;;;35.00;21.05;;;16.80;99.90;;;;;;5074980;28;20056;-73
2022/06/18 03:03:35;;;;;;;30.95;23.40;;;16.80;99.90;;;;;;5075284;28;20045;-73
2022/06/18 03:06:02;;;;;;;42.13;25.33;;;16.80;99.90;;;;;;5075185;28;20064;-72
2022/06/18 03:08:28;;;;;;;35.97;25.05;;;16.80;99.90;;;;;;5089799;28;20127;-73
2022/06/18 03:13:39;;;;;;;;;;;16.70;99.90;;;;;;5095771;28;20374;-74
2022/06/18 03:16:09;;;;;;;34.17;23.73;;;16.60;99.90;;;;;;5095476;28;19927;-73
2022/06/18 03:18:36;;;;;;;32.30;26.20;;;16.60;99.90;;;;;;5095613;28;20059;-74
2022/06/18 03:21:15;;;;;;;33.67;23.40;;;16.60;99.90;;;;;;5095042;28;20043;-73
2022/06/18 03:23:44;;;;;;;44.00;26.27;;;16.60;99.90;;;;;;5093911;28;20446;-72
2022/06/18 03:26:13;;;;;;;39.30;26.23;;;16.60;99.90;;;;;;5095150;28;20044;-74
2022/06/18 03:28:38;;;;;;;32.35;23.40;;;16.60;99.90;;;;;;5095297;28;20373;-73
2022/06/18 03:31:04;;;;;;;33.28;24.83;;;16.70;99.90;;;;;;5095084;28;20050;-74
2022/06/18 03:33:30;;;;;;;40.30;25.27;;;16.60;99.90;;;;;;5095249;28;20044;-73
2022/06/18 03:35:56;;;;;;;33.00;24.17;;;16.60;99.90;;;;;;5095130;28;20081;-72
2022/06/18 03:38:22;;;;;;;37.53;24.33;;;16.60;99.90;;;;;;5095043;28;20079;-74
2022/06/18 03:40:51;;;;;;;37.55;23.65;;;16.70;99.90;;;;;;5093104;28;20044;-73
2022/06/18 03:43:24;;;;;;;31.98;23.58;;;16.70;99.90;;;;;;5095071;28;20131;-73
2022/06/18 03:46:03;;;;;;;33.20;24.52;;;16.70;99.90;;;;;;5095025;28;20036;-73
2022/06/18 03:48:41;;;;;;;34.58;24.13;;;16.80;99.90;;;;;;5095158;28;20050;-73
2022/06/18 03:51:07;;;;;;;37.17;23.33;;;16.70;99.90;;;;;;5094824;28;20424;-74
2022/06/18 03:53:33;;;;;;;33.75;22.95;;;16.70;99.90;;;;;;5095123;28;20040;-74
2022/06/18 03:55:58;;;;;;;31.20;22.48;;;16.70;99.90;;;;;;5095001;28;20051;-73
2022/06/18 03:58:24;;;;;;;34.95;24.35;;;16.70;99.90;;;;;;5093690;28;20052;-73
2022/06/18 04:00:51;;;;;;;32.13;23.20;;;16.70;99.90;;;;;;5077289;28;20086;-73
2022/06/18 04:03:16;;;;;;;32.28;24.45;;;16.60;99.90;;;;;;5076459;28;20500;-73
2022/06/18 04:05:42;;;;;;;30.20;21.35;;;16.60;99.90;;;;;;5074707;28;20056;-73
2022/06/18 04:08:12;;;;;;;33.75;23.08;;;16.60;99.90;;;;;;5074518;28;20041;-74
2022/06/18 04:10:37;;;;;;;33.15;22.75;;;16.70;99.90;;;;;;5074411;28;20041;-73
2022/06/18 04:13:03;;;;;;;31.60;22.65;;;16.70;99.90;;;;;;5074126;28;20044;-73
2022/06/18 04:15:28;;;;;;;30.80;20.60;;;16.70;99.90;;;;;;5074956;28;20045;-73
2022/06/18 04:17:55;;;;;;;29.45;19.98;;;16.70;99.90;;;;;;5074475;28;20503;-74
2022/06/18 04:20:29;;;;;;;27.90;20.98;;;16.80;99.90;;;;;;5074512;28;20141;-73
2022/06/18 04:22:54;;;;;;;33.28;19.65;;;16.80;99.90;;;;;;5074691;28;20048;-73
2022/06/18 04:25:21;;;;;;;27.15;18.27;;;16.80;99.90;;;;;;5056951;28;20124;-73
2022/06/18 04:27:47;;;;;;;30.90;19.35;;;16.90;99.90;;;;;;5073758;28;20431;-73
2022/06/18 04:30:14;;;;;;;30.48;17.48;;;16.90;99.90;;;;;;5074296;28;20037;-73
2022/06/18 04:32:39;;;;;;;30.75;17.42;;;16.90;99.90;;;;;;5075030;28;20047;-73
2022/06/18 04:35:07;;;;;;;29.35;17.45;;;17.00;99.90;;;;;;5074313;28;20216;-73
2022/06/18 04:37:33;;;;;;;26.05;17.20;;;16.90;99.90;;;;;;5074284;28;20051;-74
2022/06/18 04:39:59;;;;;;;24.60;16.55;;;17.00;99.90;;;;;;5074233;28;20036;-74
2022/06/18 04:42:25;;;;;;;22.88;16.20;;;17.00;99.90;;;;;;5056367;28;20063;-74
2022/06/18 04:44:52;;;;;;;27.05;16.17;;;17.00;99.90;;;;;;5074655;28;20058;-73
2022/06/18 04:47:18;;;;;;;29.00;17.50;;;17.00;99.90;;;;;;5056820;28;20032;-73
2022/06/18 04:49:43;;;;;;;22.30;15.50;;;17.20;99.90;;;;;;5074845;28;20040;-73
2022/06/18 04:52:10;;;;;;;26.27;16.15;;;17.10;99.90;;;;;;5075257;28;20040;-74
2022/06/18 04:54:35;;;;;;;21.83;16.58;;;17.10;99.90;;;;;;5078019;28;20573;-72
2022/06/18 04:57:01;;;;;;;30.88;17.05;;;17.20;99.90;;;;;;5077533;28;20533;-73
2022/06/18 04:59:27;;;;;;;25.95;15.82;;;17.10;99.90;;;;;;5079016;28;20036;-74
2022/06/18 05:02:01;;;;;;;23.67;15.48;;;17.20;99.90;;;;;;5091932;28;20125;-73
2022/06/18 05:04:27;;;;;;;27.45;16.17;;;17.20;99.90;;;;;;5097861;28;20446;-74
2022/06/18 05:06:52;;;;;;;25.42;13.98;;;17.30;99.90;;;;;;5097060;28;20051;-73
2022/06/18 05:09:19;;;;;;;24.52;13.30;;;17.20;99.90;;;;;;5097547;28;20473;-73
2022/06/18 05:11:45;;;;;;;26.70;13.40;;;17.30;99.90;;;;;;5097570;28;20109;-74
2022/06/18 05:14:10;;;;;;;21.38;14.00;;;17.30;99.90;;;;;;5097862;28;20055;-73
2022/06/18 05:16:36;;;;;;;19.17;12.18;;;17.30;99.90;;;;;;5097674;28;20044;-74
2022/06/18 05:19:02;;;;;;;21.85;13.30;;;17.40;99.90;;;;;;5097657;28;20453;-74
2022/06/18 05:21:28;;;;;;;21.73;11.10;;;17.40;99.90;;;;;;5097541;28;20089;-72
2022/06/18 05:23:54;;;;;;;19.35;12.25;;;17.50;99.90;;;;;;5096677;28;20048;-73
2022/06/18 05:26:20;;;;;;;24.42;11.60;;;17.50;99.90;;;;;;5097400;28;20056;-73
2022/06/18 05:28:45;;;;;;;18.67;10.95;;;17.60;99.90;;;;;;5097383;28;20119;-74
2022/06/18 05:31:11;;;;;;;20.05;10.60;;;17.70;99.90;;;;;;5097391;28;20361;-73
2022/06/18 05:33:37;;;;;;;27.38;11.35;;;17.70;99.90;;;;;;5097685;28;20529;-73
2022/06/18 05:36:03;;;;;;;18.42;10.55;;;17.60;99.90;;;;;;5096998;28;20078;-74
2022/06/18 05:38:29;;;;;;;21.02;11.13;;;17.60;99.90;;;;;;5096996;28;20050;-74
2022/06/18 05:40:54;;;;;;;16.08;9.23;;;17.70;99.90;;;;;;5096188;28;20040;-73
2022/06/18 05:43:20;;;;;;;16.60;10.10;;;17.70;99.90;;;;;;5097196;28;20043;-73
2022/06/18 05:45:46;;;;;;;18.98;10.00;;;17.80;99.90;;;;;;5097274;28;20432;-74
2022/06/18 05:48:12;;;;;;;17.75;9.90;;;17.90;99.90;;;;;;5097131;28;20043;-74
2022/06/18 05:50:39;;;;;;;16.77;9.15;;;18.00;99.90;;;;;;5079021;28;20377;-73
2022/06/18 05:53:04;;;;;;;20.17;9.45;;;18.00;99.90;;;;;;5079271;28;20131;-74
2022/06/18 05:55:30;;;;;;;14.90;8.60;;;18.00;99.90;;;;;;5096840;28;20126;-73
2022/06/18 05:57:56;;;;;;;12.48;8.43;;;18.00;99.90;;;;;;5096075;28;20396;-73
2022/06/18 06:00:26;;;;;;;15.45;9.15;;;18.20;99.90;;;;;;5096882;28;20044;-73
2022/06/18 06:02:51;;;;;;;19.52;8.63;;;18.10;99.90;;;;;;5082070;28;20363;-73
2022/06/18 06:05:17;;;;;;;13.75;8.68;;;18.00;99.90;;;;;;5058184;28;20067;-74
2022/06/18 06:07:46;;;;;;;13.05;7.20;;;18.00;99.90;;;;;;5076418;28;20051;-74
2022/06/18 06:13:22;;;;;;;11.10;6.70;;;18.10;99.90;;;;;;5084994;28;20044;-74
2022/06/18 06:15:48;;;;;;;13.68;6.63;;;18.00;99.90;;;;;;5095347;28;20056;-75
2022/06/18 06:18:16;;;;;;;11.20;5.57;;;18.10;99.90;;;;;;5088767;28;20055;-74
2022/06/18 06:20:44;;;;;;;9.15;5.18;;;18.20;99.90;;;;;;5095950;28;20469;-73
2022/06/18 06:23:11;;;;;;;7.07;5.22;;;18.30;99.90;;;;;;5095862;28;20209;-73
2022/06/18 06:25:38;;;;;;;9.32;5.18;;;18.30;99.90;;;;;;5096280;28;20046;-73
2022/06/18 06:28:04;;;;;;;10.45;5.18;;;18.30;99.90;;;;;;5096228;28;20062;-74
2022/06/18 06:30:30;;;;;;;10.48;5.07;;;18.40;99.90;;;;;;5090236;28;20123;-74
2022/06/18 06:32:56;;;;;;;7.85;4.32;;;18.40;99.90;;;;;;5094608;28;20169;-74
2022/06/18 06:35:22;;;;;;;6.55;4.32;;;18.30;99.90;;;;;;5095885;28;20047;-74
2022/06/18 06:37:47;;;;;;;8.02;4.40;;;18.50;99.90;;;;;;5095927;28;20048;-74
2022/06/18 06:40:14;;;;;;;6.43;3.80;;;18.50;99.90;;;;;;5091426;28;20051;-74
2022/06/18 06:42:51;;;;;;;9.02;4.40;;;18.60;99.90;;;;;;5092244;28;20044;-73
2022/06/18 06:45:23;;;;;;;5.80;3.97;;;18.70;99.90;;;;;;5095659;28;20044;-74
2022/06/18 06:47:48;;;;;;;7.13;3.72;;;18.70;99.90;;;;;;5074315;28;20056;-74
2022/06/18 06:50:16;;;;;;;4.57;3.05;;;18.70;99.90;;;;;;5093941;28;20062;-73
2022/06/18 06:52:43;;;;;;;8.60;3.30;;;18.80;99.90;;;;;;5074766;28;20048;-74
2022/06/18 06:58:20;;;;;;;6.82;2.95;;;19.00;99.90;;;;;;5095393;28;20040;-74
2022/06/18 07:00:48;;;;;;;7.72;3.40;;;19.00;99.90;;;;;;5088024;28;20044;-74
2022/06/18 07:03:19;;;;;;;6.88;3.55;;;19.10;99.90;;;;;;5085262;28;20048;-74
2022/06/18 07:05:44;;;;;;;4.70;3.03;;;19.10;99.90;;;;;;5085843;28;20359;-73
2022/06/18 07:08:10;;;;;;;4.88;3.25;;;19.20;99.90;;;;;;5092977;28;20047;-73
2022/06/18 07:10:36;;;;;;;7.75;3.28;;;19.30;99.90;;;;;;5077180;28;20507;-74
2022/06/18 07:13:02;;;;;;;6.07;2.67;;;19.30;99.90;;;;;;5095145;28;20044;-74
2022/06/18 07:15:28;;;;;;;5.20;3.35;;;19.40;99.90;;;;;;5077168;28;20058;-74
2022/06/18 07:17:53;;;;;;;6.18;3.75;;;19.40;99.90;;;;;;5095075;28;20047;-75
2022/06/18 07:20:21;;;;;;;7.35;3.22;;;19.40;99.90;;;;;;5095061;28;20050;-73
2022/06/18 07:22:46;;;;;;;9.80;3.47;;;19.50;99.90;;;;;;5093975;28;20066;-73
2022/06/18 07:25:14;;;;;;;5.63;3.50;;;19.50;99.90;;;;;;5095349;28;20087;-73
2022/06/18 07:27:40;;;;;;;7.85;3.67;;;19.50;99.90;;;;;;5093399;28;20062;-75
2022/06/18 07:30:08;;;;;;;5.60;3.40;;;19.60;99.90;;;;;;5085809;28;20036;-75
2022/06/18 07:32:36;;;;;;;6.63;3.70;;;19.60;99.90;;;;;;5084407;28;20149;-74
2022/06/18 07:35:03;;;;;;;7.47;3.35;;;19.70;99.90;;;;;;5083546;28;20040;-74
2022/06/18 07:37:29;;;;;;;5.65;3.30;;;19.80;99.90;;;;;;5079333;28;20036;-73
2022/06/18 07:39:55;;;;;;;5.93;3.28;;;19.80;99.90;;;;;;5075301;28;20051;-75
2022/06/18 07:42:22;;;;;;;5.43;3.47;;;19.80;99.90;;;;;;5074819;28;20075;-73
2022/06/18 07:44:48;;;;;;;5.97;3.13;;;20.00;99.90;;;;;;5074912;28;20063;-74
2022/06/18 07:47:16;;;;;;;10.23;4.50;;;20.00;99.90;;;;;;5074907;28;20094;-73
2022/06/18 07:49:44;;;;;;;7.75;3.97;;;19.90;99.90;;;;;;5074758;28;20037;-75
2022/06/18 07:52:12;;;;;;;7.28;3.78;;;19.60;99.90;;;;;;5074579;28;20454;-74
2022/06/18 07:54:38;;;;;;;7.68;3.22;;;19.50;99.90;;;;;;5076616;28;20127;-74
2022/06/18 07:57:04;;;;;;;8.32;4.53;;;19.30;99.90;;;;;;5075888;28;20049;-73
2022/06/18 07:59:30;;;;;;;7.80;3.45;;;19.40;99.90;;;;;;5074679;28;20046;-76
2022/06/18 08:01:55;;;;;;;7.45;3.40;;;19.30;99.90;;;;;;5074595;28;20075;-74
2022/06/18 08:04:21;;;;;;;7.47;3.60;;;19.60;99.90;;;;;;5074495;28;20406;-74
2022/06/18 08:06:47;;;;;;;8.48;3.30;;;19.70;99.90;;;;;;5074226;28;20076;-73
2022/06/18 08:09:14;;;;;;;7.35;3.33;;;19.70;99.90;;;;;;5088809;28;20454;-73
2022/06/18 08:11:40;;;;;;;5.40;3.22;;;19.60;99.90;;;;;;5093062;28;20692;-73
2022/06/18 08:14:06;;;;;;;7.82;3.45;;;19.70;99.90;;;;;;5094849;28;20130;-73
2022/06/18 08:16:32;;;;;;;5.50;2.60;;;19.80;99.90;;;;;;5077223;28;20079;-74
2022/06/18 08:18:58;;;;;;;8.25;3.97;;;19.90;99.90;;;;;;5094780;28;20040;-74
2022/06/18 08:21:32;;;;;;;9.10;3.92;;;20.10;99.90;;;;;;5094360;28;20115;-74
2022/06/18 08:24:05;;;;;;;7.90;3.75;;;20.30;99.90;;;;;;5078493;28;20080;-74
2022/06/18 08:26:31;;;;;;;8.77;3.65;;;20.20;99.90;;;;;;5074530;28;20036;-74
2022/06/18 08:28:57;;;;;;;6.97;3.88;;;20.30;99.90;;;;;;5096220;28;20413;-74
2022/06/18 08:31:23;;;;;;;5.78;2.85;;;20.40;99.90;;;;;;5098280;28;20046;-74
2022/06/18 08:33:48;;;;;;;8.00;3.50;;;20.60;99.90;;;;;;5098529;28;20040;-73
2022/06/18 08:36:16;;;;;;;7.25;3.17;;;20.60;99.90;;;;;;5098348;28;20058;-73
2022/06/18 08:38:45;;;;;;;9.00;3.15;;;20.70;99.90;;;;;;5098292;28;20112;-74
2022/06/18 08:41:32;;;;;;;8.77;3.20;;;20.90;99.90;;;;;;5096818;28;20055;-73
2022/06/18 08:44:23;;;;;;;6.93;2.88;;;21.00;99.90;;;;;;5098500;28;20037;-73
2022/06/18 08:47:10;;;;;;;6.55;3.38;;;21.00;99.90;;;;;;5098450;28;20097;-74
2022/06/18 08:50:03;;;;;;;7.53;3.03;;;21.00;99.90;;;;;;5080367;28;20043;-73
2022/06/18 08:53:06;;;;;;;5.53;2.88;;;21.00;99.90;;;;;;5098315;28;20083;-74
2022/06/18 08:55:35;;;;;;;5.07;2.80;;;21.10;99.90;;;;;;5096042;28;20055;-74
2022/06/18 08:58:33;;;;;;;6.97;3.53;;;21.10;99.90;;;;;;5083978;28;20509;-76
2022/06/18 09:01:08;;;;;;;7.25;3.30;;;21.10;99.90;;;;;;5080135;28;20055;-75
2022/06/18 09:04:00;;;;;;;6.78;3.22;;;20.80;99.90;;;;;;5085897;28;20473;-73
2022/06/18 09:06:40;;;;;;;6.53;3.10;;;20.80;99.90;;;;;;5086898;28;20051;-75
2022/06/18 09:09:25;;;;;;;4.57;2.75;;;20.80;99.90;;;;;;5085563;28;20060;-73
2022/06/18 09:11:59;;;;;;;7.47;3.30;;;20.70;99.90;;;;;;5059216;28;20056;-73
2022/06/18 09:14:48;;;;;;;6.82;3.50;;;20.80;99.90;;;;;;5077499;28;20152;-74
2022/06/18 09:17:21;;;;;;;6.63;2.65;;;20.90;99.90;;;;;;5077547;28;20513;-74
2022/06/18 09:20:02;;;;;;;7.55;3.13;;;20.90;99.90;;;;;;5080572;28;20036;-69
2022/06/18 09:22:32;;;;;;;6.95;3.28;;;20.90;99.90;;;;;;5097548;28;20131;-71
2022/06/18 09:25:05;;;;;;;7.88;2.35;;;20.90;99.90;;;;;;5097568;28;20059;-68
2022/06/18 09:27:47;;;;;;;4.15;2.50;;;20.90;99.90;;;;;;5079929;28;20454;-71
2022/06/18 09:30:28;;;;;;;6.60;3.13;;;21.00;99.90;;;;;;5095173;28;20050;-73
2022/06/18 09:33:35;;;;;;;6.63;2.67;;;21.00;99.90;;;;;;5079432;28;20043;-68
2022/06/18 09:36:11;;;;;;;6.50;2.40;;;21.10;99.90;;;;;;5068889;28;20055;-70
2022/06/18 09:38:48;;;;;;;7.25;2.47;;;21.40;99.90;;;;;;5097149;28;20051;-70
2022/06/18 09:41:24;;;;;;;5.97;2.50;;;21.40;99.90;;;;;;5096967;28;20453;-70
2022/06/18 09:43:56;;;;;;;4.68;2.25;;;21.40;99.90;;;;;;5095826;28;20047;-71
2022/06/18 09:46:25;;;;;;;5.78;2.20;;;21.30;99.90;;;;;;5097444;28;20106;-67
2022/06/18 09:48:53;;;;;;;4.97;2.13;;;21.30;99.90;;;;;;5035611;28;20510;-73
2022/06/18 09:51:37;;;;;;;6.05;2.53;;;21.40;99.90;;;;;;5034972;28;20045;-72
2022/06/18 09:54:05;;;;;;;7.13;2.17;;;21.50;99.90;;;;;;5018349;28;20567;-70
2022/06/18 09:56:35;;;;;;;5.40;2.20;;;21.60;99.90;;;;;;5034586;28;20049;-69
2022/06/18 09:59:06;;;;;;;5.75;2.25;;;21.60;99.90;;;;;;5028765;28;20537;-69
2022/06/18 10:01:53;;;;;;;7.15;2.95;;;21.60;99.90;;;;;;4998351;28;20058;-72
2022/06/18 10:07:25;;;;;;;5.60;2.25;;;21.80;99.90;;;;;;5014645;28;20133;-73
2022/06/18 10:09:58;;;;;;;5.78;2.17;;;22.00;99.90;;;;;;4997951;28;20543;-73
2022/06/18 10:12:54;;;;;;;6.88;1.90;;;22.20;99.90;;;;;;5014498;28;20050;-76
2022/06/18 10:15:21;;;;;;;3.67;1.92;;;22.10;99.90;;;;;;5030526;28;20053;-76
2022/06/18 10:18:10;;;;;;;5.07;1.80;;;22.20;99.90;;;;;;5034338;28;20115;-75
2022/06/18 10:20:54;;;;;;;3.50;1.77;;;22.20;99.90;;;;;;5085931;28;20074;-75
2022/06/18 10:23:38;;;;;;;6.50;2.67;;;22.50;99.90;;;;;;5096409;28;20079;-75
2022/06/18 10:26:22;;;;;;;5.05;2.28;;;22.50;99.90;;;;;;5096613;28;20059;-74
2022/06/18 10:28:53;;;;;;;9.00;2.80;;;22.50;99.90;;;;;;5094748;28;20048;-73
2022/06/18 10:31:45;;;;;;;4.07;2.15;;;22.70;99.90;;;;;;5085807;28;20084;-75
2022/06/18 10:34:28;;;;;;;5.28;2.33;;;22.90;99.90;;;;;;5049260;28;20047;-74
2022/06/18 10:37:15;;;;;;;4.07;1.88;;;22.90;99.90;;;;;;5096168;28;20058;-74
2022/06/18 10:40:02;;;;;;;3.80;2.17;;;22.80;99.90;;;;;;5096061;28;20044;-73
2022/06/18 10:42:47;;;;;;;5.68;2.25;;;22.90;99.90;;;;;;5095868;28;20100;-76
2022/06/18 10:45:46;;;;;;;7.20;1.88;;;23.10;99.90;;;;;;5094669;28;20133;-75
2022/06/18 10:48:14;;;;;;;7.40;2.20;;;23.00;99.90;;;;;;5075983;28;20462;-75
2022/06/18 10:50:46;;;;;;;4.00;1.75;;;22.90;99.90;;;;;;5075256;28;20052;-74
2022/06/18 10:53:14;;;;;;;7.82;2.17;;;23.20;99.90;;;;;;5075783;28;20119;-73
2022/06/18 10:55:41;;;;;;;7.75;2.25;;;23.50;99.90;;;;;;5075191;28;20123;-75
2022/06/18 10:58:10;;;;;;;4.53;2.30;;;23.40;99.90;;;;;;5057906;28;20048;-73
2022/06/18 11:00:36;;;;;;;8.18;2.30;;;23.40;99.90;;;;;;5074921;28;20082;-74
2022/06/18 11:03:04;;;;;;;5.50;2.20;;;23.50;99.90;;;;;;5075309;28;20379;-75
2022/06/18 11:05:32;;;;;;;5.93;1.67;;;23.50;99.90;;;;;;5075799;28;20059;-73
2022/06/18 11:08:01;;;;;;;6.05;2.13;;;23.70;99.90;;;;;;5075103;28;20068;-72
2022/06/18 11:10:37;;;;;;;8.55;2.35;;;24.00;99.90;;;;;;5075283;28;20124;-75
2022/06/18 11:13:06;;;;;;;6.07;2.20;;;24.10;99.90;;;;;;5075258;28;20080;-74
2022/06/18 11:15:37;;;;;;;6.50;2.60;;;24.40;99.90;;;;;;5051003;28;20470;-74
2022/06/18 11:18:14;;;;;;;7.40;2.72;;;24.60;99.90;;;;;;5075340;28;20133;-75
2022/06/18 11:20:52;;;;;;;5.32;2.20;;;24.50;99.90;;;;;;5074956;28;20059;-75
2022/06/18 11:23:20;;;;;;;8.77;3.15;;;24.50;99.90;;;;;;5075101;28;20093;-73
2022/06/18 11:25:50;;;;;;;11.25;3.85;;;24.60;99.90;;;;;;5075150;28;20344;-74
2022/06/18 11:28:25;;;;;;;6.95;2.40;;;24.60;99.90;;;;;;5075074;28;20056;-76
2022/06/18 11:30:52;;;;;;;6.60;2.40;;;24.60;99.90;;;;;;5075074;28;20105;-75
2022/06/18 11:33:34;;;;;;;7.88;2.47;;;24.70;99.90;;;;;;5074870;28;20074;-76
2022/06/18 11:36:11;;;;;;;8.57;2.58;;;24.60;99.90;;;;;;5074939;28;20124;-74
2022/06/18 11:38:40;;;;;;;10.52;2.90;;;24.70;99.90;;;;;;5074721;28;20123;-76
2022/06/18 11:41:19;;;;;;;8.02;3.08;;;24.80;99.90;;;;;;5074817;28;20045;-75
2022/06/18 11:43:44;;;;;;;5.82;2.50;;;24.90;99.90;;;;;;5079017;28;20347;-75
2022/06/18 11:46:22;;;;;;;9.15;2.78;;;25.00;99.90;;;;;;5094910;28;20043;-76
2022/06/18 11:48:54;;;;;;;7.45;2.80;;;25.20;99.90;;;;;;5095064;28;20130;-76
2022/06/18 11:51:26;;;;;;;7.28;3.00;;;25.30;99.90;;;;;;5094739;28;20126;-75
2022/06/18 11:54:21;;;;;;;8.57;3.30;;;24.70;99.90;;;;;;5094855;28;20051;-75
2022/06/18 11:56:47;;;;;;;8.45;3.15;;;24.30;99.90;;;;;;5092997;28;20119;-75
2022/06/18 11:59:22;;;;;;;7.90;2.50;;;24.50;99.90;;;;;;5094477;28;20528;-74
2022/06/18 12:01:57;;;;;;;7.53;2.97;;;24.60;99.90;;;;;;5095247;28;20193;-76
2022/06/18 12:04:49;;;;;;;10.18;3.83;;;24.80;99.90;;;;;;5099274;28;20150;-77
2022/06/18 12:07:28;;;;;;;8.60;3.10;;;24.60;99.90;;;;;;5098904;28;20043;-74
2022/06/18 12:09:55;;;;;;;9.25;3.20;;;24.80;99.90;;;;;;5099175;28;20131;-74
2022/06/18 12:12:45;;;;;;;9.85;3.35;;;25.10;99.90;;;;;;5097512;28;20054;-74
2022/06/18 12:15:34;;;;;;;8.57;3.08;;;24.80;99.90;;;;;;5099138;28;20182;-74
2022/06/18 12:18:01;;;;;;;9.88;2.92;;;24.80;99.90;;;;;;5098793;28;20044;-75
2022/06/18 12:20:46;;;;;;;12.32;3.22;;;25.00;99.90;;;;;;5098680;28;20135;-76
2022/06/18 12:23:46;;;;;;;8.95;3.20;;;24.70;99.90;;;;;;5098670;28;20374;-75
2022/06/18 12:26:23;;;;;;;10.68;3.45;;;24.80;99.90;;;;;;5097635;28;20036;-75
2022/06/18 12:29:12;;;;;;;10.95;3.13;;;24.90;99.90;;;;;;5098750;28;20079;-75
2022/06/18 12:31:52;;;;;;;9.02;2.85;;;25.00;99.90;;;;;;5096936;28;20075;-71
2022/06/18 12:34:28;;;;;;;12.88;3.25;;;24.90;99.90;;;;;;5098430;28;20040;-76
2022/06/18 12:37:12;;;;;;;10.63;3.53;;;24.90;99.90;;;;;;5098435;28;20127;-73
2022/06/18 12:39:57;;;;;;;11.68;3.85;;;24.80;99.90;;;;;;5098710;28;20044;-75
2022/06/18 12:42:28;;;;;;;10.13;3.53;;;25.10;99.90;;;;;;5098322;28;20044;-75
2022/06/18 12:45:08;;;;;;;9.27;3.03;;;25.20;99.90;;;;;;5097134;28;20043;-75
2022/06/18 12:47:58;;;;;;;10.18;2.75;;;25.20;99.90;;;;;;5098234;28;20048;-75
2022/06/18 12:50:57;;;;;;;11.10;3.35;;;25.60;99.90;;;;;;5097504;28;20475;-74
2022/06/18 12:53:53;;;;;;;10.68;3.70;;;25.70;99.90;;;;;;5080554;28;20083;-75
2022/06/18 12:56:31;;;;;;;9.65;2.83;;;25.90;99.90;;;;;;5097083;28;20036;-73
2022/06/18 12:59:07;;;;;;;7.57;2.83;;;25.70;99.20;;;;;;5097802;28;20491;-75
2022/06/18 13:01:57;;;;;;;8.48;3.20;;;26.10;98.50;;;;;;5098277;28;20120;-75
2022/06/18 13:04:27;;;;;;;7.88;2.53;;;26.50;96.40;;;;;;5071562;28;20052;-75
2022/06/18 13:07:03;;;;;;;8.05;2.78;;;26.60;95.10;;;;;;5077894;28;20041;-73
2022/06/18 13:09:47;;;;;;;6.78;2.95;;;26.30;93.00;;;;;;5086933;28;20475;-73
2022/06/18 13:12:57;;;;;;;14.85;3.53;;;26.30;94.80;;;;;;5070470;28;20060;-76
2022/06/18 13:15:40;;;;;;;9.35;3.47;;;26.70;92.50;;;;;;5097550;28;20059;-74
2022/06/18 13:18:14;;;;;;;9.63;3.25;;;26.60;91.90;;;;;;5097757;28;20036;-76